sensor_id;sensor_type;location;lat;lon;timestamp;temperature;humidity
20158;DHT22;10239;56.820;24.416;2023-04-24T00:02:20;12.40;99.90
20158;DHT22;10239;56.820;24.416;2023-04-24T00:04:48;12.30;99.90
20158;DHT22;10239;56.820;24.416;2023-04-24T00:07:16;12.30;99.90
20158;DHT22;10239;56.820;24.416;2023-04-24T00:09:44;12.30;99.90
20158;DHT22;10239;56.820;24.416;2023-04-24T00:12:11;12.30;99.90
20158;DHT22;10239;56.820;24.416;2023-04-24T00:14:39;12.30;99.90
20158;DHT22;10239;56.820;24.416;2023-04-24T00:17:07;12.10;99.90
20158;DHT22;10239;56.820;24.416;2023-04-24T00:19:35;12.00;99.90
20158;DHT22;10239;56.820;24.416;2023-04-24T00:22:03;12.10;99.90
20158;DHT22;10239;56.820;24.416;2023-04-24T00:24:31;12.10;99.90
20158;DHT22;10239;56.820;24.416;2023-04-24T00:26:58;12.00;99.90
20158;DHT22;10239;56.820;24.416;2023-04-24T00:29:28;12.00;99.90
20158;DHT22;10239;56.820;24.416;2023-04-24T00:31:55;11.90;99.90
20158;DHT22;10239;56.820;24.416;2023-04-24T00:34:23;12.10;99.90
20158;DHT22;10239;56.820;24.416;2023-04-24T00:36:51;12.00;99.90
20158;DHT22;10239;56.820;24.416;2023-04-24T00:39:19;11.90;99.90
20158;DHT22;10239;56.820;24.416;2023-04-24T00:41:47;12.00;99.90
20158;DHT22;10239;56.820;24.416;2023-04-24T00:44:15;11.90;99.90
20158;DHT22;10239;56.820;24.416;2023-04-24T00:46:43;11.80;99.90
20158;DHT22;10239;56.820;24.416;2023-04-24T00:49:11;11.80;99.90
20158;DHT22;10239;56.820;24.416;2023-04-24T00:51:39;11.90;99.90
20158;DHT22;10239;56.820;24.416;2023-04-24T00:54:08;11.90;99.90
20158;DHT22;10239;56.820;24.416;2023-04-24T00:56:35;11.90;99.90
20158;DHT22;10239;56.820;24.416;2023-04-24T00:59:03;11.90;99.90
20158;DHT22;10239;56.820;24.416;2023-04-24T01:01:32;11.80;99.90
20158;DHT22;10239;56.820;24.416;2023-04-24T01:04:00;11.80;99.90
20158;DHT22;10239;56.820;24.416;2023-04-24T01:06:29;11.80;99.90
20158;DHT22;10239;56.820;24.416;2023-04-24T01:08:59;11.80;99.90
20158;DHT22;10239;56.820;24.416;2023-04-24T01:11:30;11.80;99.90
20158;DHT22;10239;56.820;24.416;2023-04-24T01:13:58;11.90;99.90
20158;DHT22;10239;56.820;24.416;2023-04-24T01:16:26;12.00;99.90
20158;DHT22;10239;56.820;24.416;2023-04-24T01:18:54;12.00;99.90
20158;DHT22;10239;56.820;24.416;2023-04-24T01:21:24;12.10;99.90
20158;DHT22;10239;56.820;24.416;2023-04-24T01:23:56;12.00;99.90
20158;DHT22;10239;56.820;24.416;2023-04-24T01:26:24;11.90;99.90
20158;DHT22;10239;56.820;24.416;2023-04-24T01:28:53;12.00;99.90
20158;DHT22;10239;56.820;24.416;2023-04-24T01:31:20;12.00;99.90
20158;DHT22;10239;56.820;24.416;2023-04-24T01:33:49;12.00;99.90
20158;DHT22;10239;56.820;24.416;2023-04-24T01:36:18;12.00;99.90
20158;DHT22;10239;56.820;24.416;2023-04-24T01:38:46;12.00;99.90
20158;DHT22;10239;56.820;24.416;2023-04-24T01:41:13;12.00;99.90
20158;DHT22;10239;56.820;24.416;2023-04-24T01:43:41;12.00;99.90
20158;DHT22;10239;56.820;24.416;2023-04-24T01:46:09;11.80;99.90
20158;DHT22;10239;56.820;24.416;2023-04-24T01:48:37;11.90;99.90
20158;DHT22;10239;56.820;24.416;2023-04-24T01:51:04;11.80;99.90
20158;DHT22;10239;56.820;24.416;2023-04-24T01:53:32;11.70;99.90
20158;DHT22;10239;56.820;24.416;2023-04-24T01:56:00;11.70;99.90
20158;DHT22;10239;56.820;24.416;2023-04-24T01:58:29;11.70;99.90
20158;DHT22;10239;56.820;24.416;2023-04-24T02:00:57;11.70;99.90
20158;DHT22;10239;56.820;24.416;2023-04-24T02:03:26;11.70;99.90
20158;DHT22;10239;56.820;24.416;2023-04-24T02:05:56;11.60;99.90
20158;DHT22;10239;56.820;24.416;2023-04-24T02:08:24;11.60;99.90
20158;DHT22;10239;56.820;24.416;2023-04-24T02:10:51;11.40;99.90
20158;DHT22;10239;56.820;24.416;2023-04-24T02:13:19;11.40;99.90
20158;DHT22;10239;56.820;24.416;2023-04-24T02:15:46;11.50;99.90
20158;DHT22;10239;56.820;24.416;2023-04-24T02:18:14;11.40;99.90
20158;DHT22;10239;56.820;24.416;2023-04-24T02:20:42;11.40;99.90
20158;DHT22;10239;56.820;24.416;2023-04-24T02:23:10;11.30;99.90
20158;DHT22;10239;56.820;24.416;2023-04-24T02:25:38;11.30;99.90
20158;DHT22;10239;56.820;24.416;2023-04-24T02:28:05;11.40;99.90
20158;DHT22;10239;56.820;24.416;2023-04-24T02:30:33;11.30;99.90
20158;DHT22;10239;56.820;24.416;2023-04-24T02:33:01;11.30;99.90
20158;DHT22;10239;56.820;24.416;2023-04-24T02:35:28;11.40;99.90
20158;DHT22;10239;56.820;24.416;2023-04-24T02:37:56;11.40;99.90
20158;DHT22;10239;56.820;24.416;2023-04-24T02:40:24;11.40;99.90
20158;DHT22;10239;56.820;24.416;2023-04-24T02:42:51;11.40;99.90
20158;DHT22;10239;56.820;24.416;2023-04-24T02:45:19;11.50;99.90
20158;DHT22;10239;56.820;24.416;2023-04-24T02:47:47;11.50;99.90
20158;DHT22;10239;56.820;24.416;2023-04-24T02:50:14;11.50;99.90
20158;DHT22;10239;56.820;24.416;2023-04-24T02:52:42;11.40;99.90
20158;DHT22;10239;56.820;24.416;2023-04-24T02:55:09;11.60;99.90
20158;DHT22;10239;56.820;24.416;2023-04-24T02:57:37;11.60;99.90
20158;DHT22;10239;56.820;24.416;2023-04-24T03:00:05;11.30;99.90
20158;DHT22;10239;56.820;24.416;2023-04-24T03:02:34;11.40;99.90
20158;DHT22;10239;56.820;24.416;2023-04-24T03:05:02;11.40;99.90
20158;DHT22;10239;56.820;24.416;2023-04-24T03:07:31;11.40;99.90
20158;DHT22;10239;56.820;24.416;2023-04-24T03:09:59;11.30;99.90
20158;DHT22;10239;56.820;24.416;2023-04-24T03:12:26;11.40;99.90
20158;DHT22;10239;56.820;24.416;2023-04-24T03:14:54;11.30;99.90
20158;DHT22;10239;56.820;24.416;2023-04-24T03:17:22;11.40;99.90
20158;DHT22;10239;56.820;24.416;2023-04-24T03:19:49;11.40;99.90
20158;DHT22;10239;56.820;24.416;2023-04-24T03:22:17;11.40;99.90
20158;DHT22;10239;56.820;24.416;2023-04-24T03:24:45;11.30;99.90
20158;DHT22;10239;56.820;24.416;2023-04-24T03:27:15;11.40;99.90
20158;DHT22;10239;56.820;24.416;2023-04-24T03:29:51;11.40;99.90
20158;DHT22;10239;56.820;24.416;2023-04-24T03:32:29;11.70;99.90
20158;DHT22;10239;56.820;24.416;2023-04-24T03:35:00;11.40;99.90
20158;DHT22;10239;56.820;24.416;2023-04-24T03:37:28;11.40;99.90
20158;DHT22;10239;56.820;24.416;2023-04-24T03:40:08;11.30;99.90
20158;DHT22;10239;56.820;24.416;2023-04-24T03:42:36;11.50;99.90
20158;DHT22;10239;56.820;24.416;2023-04-24T03:45:06;11.50;99.90
20158;DHT22;10239;56.820;24.416;2023-04-24T03:47:36;11.60;99.90
20158;DHT22;10239;56.820;24.416;2023-04-24T03:50:05;11.60;99.90
20158;DHT22;10239;56.820;24.416;2023-04-24T03:52:33;11.70;99.90
20158;DHT22;10239;56.820;24.416;2023-04-24T03:55:01;11.60;99.90
20158;DHT22;10239;56.820;24.416;2023-04-24T03:57:31;11.90;99.90
20158;DHT22;10239;56.820;24.416;2023-04-24T04:00:11;11.70;99.90
20158;DHT22;10239;56.820;24.416;2023-04-24T04:02:41;11.60;99.90
20158;DHT22;10239;56.820;24.416;2023-04-24T04:05:09;11.70;99.90
20158;DHT22;10239;56.820;24.416;2023-04-24T04:07:37;11.90;99.90
20158;DHT22;10239;56.820;24.416;2023-04-24T04:10:05;12.10;99.90
20158;DHT22;10239;56.820;24.416;2023-04-24T04:12:36;11.90;99.90
20158;DHT22;10239;56.820;24.416;2023-04-24T04:15:03;12.00;99.90
20158;DHT22;10239;56.820;24.416;2023-04-24T04:17:33;12.10;99.90
20158;DHT22;10239;56.820;24.416;2023-04-24T04:20:04;12.10;99.90
20158;DHT22;10239;56.820;24.416;2023-04-24T04:22:37;12.10;99.90
20158;DHT22;10239;56.820;24.416;2023-04-24T04:25:09;12.40;99.90
20158;DHT22;10239;56.820;24.416;2023-04-24T04:27:36;12.60;99.90
20158;DHT22;10239;56.820;24.416;2023-04-24T04:30:09;12.70;99.90
20158;DHT22;10239;56.820;24.416;2023-04-24T04:32:46;12.90;99.90
20158;DHT22;10239;56.820;24.416;2023-04-24T04:35:14;12.90;99.90
20158;DHT22;10239;56.820;24.416;2023-04-24T04:37:42;12.90;99.90
20158;DHT22;10239;56.820;24.416;2023-04-24T04:40:38;13.10;99.90
20158;DHT22;10239;56.820;24.416;2023-04-24T04:43:06;13.40;99.90
20158;DHT22;10239;56.820;24.416;2023-04-24T04:45:41;13.50;99.90
20158;DHT22;10239;56.820;24.416;2023-04-24T04:48:29;13.60;99.90
20158;DHT22;10239;56.820;24.416;2023-04-24T04:51:01;13.60;99.90
20158;DHT22;10239;56.820;24.416;2023-04-24T04:53:28;13.80;99.90
20158;DHT22;10239;56.820;24.416;2023-04-24T04:55:56;14.80;99.90
20158;DHT22;10239;56.820;24.416;2023-04-24T04:58:34;16.00;99.90
20158;DHT22;10239;56.820;24.416;2023-04-24T05:01:03;17.80;99.90
20158;DHT22;10239;56.820;24.416;2023-04-24T05:03:36;18.60;99.90
20158;DHT22;10239;56.820;24.416;2023-04-24T05:06:08;19.30;99.90
20158;DHT22;10239;56.820;24.416;2023-04-24T05:08:38;20.40;99.90
20158;DHT22;10239;56.820;24.416;2023-04-24T05:11:09;20.90;99.40
20158;DHT22;10239;56.820;24.416;2023-04-24T05:13:38;21.80;98.20
20158;DHT22;10239;56.820;24.416;2023-04-24T05:16:16;21.70;96.20
20158;DHT22;10239;56.820;24.416;2023-04-24T05:18:44;22.40;95.20
20158;DHT22;10239;56.820;24.416;2023-04-24T05:21:14;22.50;94.30
20158;DHT22;10239;56.820;24.416;2023-04-24T05:23:46;22.60;93.00
20158;DHT22;10239;56.820;24.416;2023-04-24T05:26:20;22.60;92.50
20158;DHT22;10239;56.820;24.416;2023-04-24T05:28:48;22.20;92.60
20158;DHT22;10239;56.820;24.416;2023-04-24T05:31:16;22.10;93.10
20158;DHT22;10239;56.820;24.416;2023-04-24T05:33:45;22.50;91.80
20158;DHT22;10239;56.820;24.416;2023-04-24T05:36:13;22.10;91.70
20158;DHT22;10239;56.820;24.416;2023-04-24T05:38:41;23.10;91.90
20158;DHT22;10239;56.820;24.416;2023-04-24T05:41:08;24.00;90.90
20158;DHT22;10239;56.820;24.416;2023-04-24T05:43:36;23.30;89.60
20158;DHT22;10239;56.820;24.416;2023-04-24T05:46:04;23.60;90.00
20158;DHT22;10239;56.820;24.416;2023-04-24T05:48:31;23.70;89.70
20158;DHT22;10239;56.820;24.416;2023-04-24T05:51:02;24.50;90.30
20158;DHT22;10239;56.820;24.416;2023-04-24T05:53:30;24.70;86.20
20158;DHT22;10239;56.820;24.416;2023-04-24T05:55:57;24.90;85.50
20158;DHT22;10239;56.820;24.416;2023-04-24T05:58:26;24.40;86.20
20158;DHT22;10239;56.820;24.416;2023-04-24T06:00:53;24.70;85.70
20158;DHT22;10239;56.820;24.416;2023-04-24T06:03:22;25.80;85.60
20158;DHT22;10239;56.820;24.416;2023-04-24T06:05:50;25.50;82.50
20158;DHT22;10239;56.820;24.416;2023-04-24T06:08:18;26.00;82.20
20158;DHT22;10239;56.820;24.416;2023-04-24T06:10:47;26.90;81.00
20158;DHT22;10239;56.820;24.416;2023-04-24T06:13:17;27.20;78.00
20158;DHT22;10239;56.820;24.416;2023-04-24T06:16:04;26.90;79.20
20158;DHT22;10239;56.820;24.416;2023-04-24T06:18:36;27.60;77.40
20158;DHT22;10239;56.820;24.416;2023-04-24T06:21:04;28.10;75.70
20158;DHT22;10239;56.820;24.416;2023-04-24T06:23:32;28.60;74.30
20158;DHT22;10239;56.820;24.416;2023-04-24T06:26:00;28.30;72.40
20158;DHT22;10239;56.820;24.416;2023-04-24T06:28:27;28.70;72.80
20158;DHT22;10239;56.820;24.416;2023-04-24T06:30:55;28.60;73.00
20158;DHT22;10239;56.820;24.416;2023-04-24T06:33:23;28.60;72.30
20158;DHT22;10239;56.820;24.416;2023-04-24T06:35:51;28.50;70.60
20158;DHT22;10239;56.820;24.416;2023-04-24T06:38:19;28.40;71.60
20158;DHT22;10239;56.820;24.416;2023-04-24T06:40:46;28.50;71.30
20158;DHT22;10239;56.820;24.416;2023-04-24T06:43:14;28.00;71.20
20158;DHT22;10239;56.820;24.416;2023-04-24T06:45:42;28.50;73.30
20158;DHT22;10239;56.820;24.416;2023-04-24T06:48:11;28.80;71.00
20158;DHT22;10239;56.820;24.416;2023-04-24T06:50:39;26.10;72.50
20158;DHT22;10239;56.820;24.416;2023-04-24T06:53:06;25.10;75.30
20158;DHT22;10239;56.820;24.416;2023-04-24T06:55:35;24.90;78.00
20158;DHT22;10239;56.820;24.416;2023-04-24T06:58:03;26.40;76.90
20158;DHT22;10239;56.820;24.416;2023-04-24T07:00:30;27.70;75.40
20158;DHT22;10239;56.820;24.416;2023-04-24T07:02:58;27.10;73.70
20158;DHT22;10239;56.820;24.416;2023-04-24T07:05:25;26.90;77.30
20158;DHT22;10239;56.820;24.416;2023-04-24T07:07:53;27.30;75.10
20158;DHT22;10239;56.820;24.416;2023-04-24T07:10:20;28.20;73.90
20158;DHT22;10239;56.820;24.416;2023-04-24T07:12:48;29.80;72.60
20158;DHT22;10239;56.820;24.416;2023-04-24T07:15:15;29.60;70.50
20158;DHT22;10239;56.820;24.416;2023-04-24T07:17:43;27.40;71.70
20158;DHT22;10239;56.820;24.416;2023-04-24T07:20:11;28.10;73.20
20158;DHT22;10239;56.820;24.416;2023-04-24T07:22:39;29.10;71.90
20158;DHT22;10239;56.820;24.416;2023-04-24T07:25:07;30.00;69.90
20158;DHT22;10239;56.820;24.416;2023-04-24T07:27:35;28.30;69.50
20158;DHT22;10239;56.820;24.416;2023-04-24T07:30:04;26.50;73.00
20158;DHT22;10239;56.820;24.416;2023-04-24T07:32:32;27.50;75.10
20158;DHT22;10239;56.820;24.416;2023-04-24T07:34:59;27.80;72.90
20158;DHT22;10239;56.820;24.416;2023-04-24T07:37:27;26.40;73.00
20158;DHT22;10239;56.820;24.416;2023-04-24T07:39:55;25.50;75.60
20158;DHT22;10239;56.820;24.416;2023-04-24T07:42:22;25.50;75.60
20158;DHT22;10239;56.820;24.416;2023-04-24T07:44:50;24.60;77.60
20158;DHT22;10239;56.820;24.416;2023-04-24T07:47:18;23.90;77.80
20158;DHT22;10239;56.820;24.416;2023-04-24T07:49:46;22.30;80.90
20158;DHT22;10239;56.820;24.416;2023-04-24T07:52:14;22.50;81.20
20158;DHT22;10239;56.820;24.416;2023-04-24T07:54:41;22.70;83.50
20158;DHT22;10239;56.820;24.416;2023-04-24T07:57:10;22.80;81.70
20158;DHT22;10239;56.820;24.416;2023-04-24T07:59:38;23.20;83.80
20158;DHT22;10239;56.820;24.416;2023-04-24T08:02:06;23.70;84.50
20158;DHT22;10239;56.820;24.416;2023-04-24T08:04:33;24.60;85.20
20158;DHT22;10239;56.820;24.416;2023-04-24T08:07:01;25.30;83.40
20158;DHT22;10239;56.820;24.416;2023-04-24T08:09:29;25.00;80.10
20158;DHT22;10239;56.820;24.416;2023-04-24T08:11:57;24.80;81.30
20158;DHT22;10239;56.820;24.416;2023-04-24T08:14:24;25.10;82.40
20158;DHT22;10239;56.820;24.416;2023-04-24T08:16:54;24.60;81.70
20158;DHT22;10239;56.820;24.416;2023-04-24T08:19:23;24.50;81.80
20158;DHT22;10239;56.820;24.416;2023-04-24T08:21:50;24.30;81.10
20158;DHT22;10239;56.820;24.416;2023-04-24T08:24:18;24.40;83.90
20158;DHT22;10239;56.820;24.416;2023-04-24T08:26:46;24.60;82.30
20158;DHT22;10239;56.820;24.416;2023-04-24T08:29:13;24.40;81.30
20158;DHT22;10239;56.820;24.416;2023-04-24T08:31:41;24.40;84.30
20158;DHT22;10239;56.820;24.416;2023-04-24T08:34:09;24.30;82.00
20158;DHT22;10239;56.820;24.416;2023-04-24T08:36:37;24.40;83.50
20158;DHT22;10239;56.820;24.416;2023-04-24T08:39:14;24.40;84.00
20158;DHT22;10239;56.820;24.416;2023-04-24T08:41:42;24.40;83.60
20158;DHT22;10239;56.820;24.416;2023-04-24T08:44:11;24.40;84.30
20158;DHT22;10239;56.820;24.416;2023-04-24T08:46:39;24.10;84.70
20158;DHT22;10239;56.820;24.416;2023-04-24T08:49:08;24.10;84.10
20158;DHT22;10239;56.820;24.416;2023-04-24T08:51:36;23.80;82.40
20158;DHT22;10239;56.820;24.416;2023-04-24T08:54:04;23.20;85.30
20158;DHT22;10239;56.820;24.416;2023-04-24T08:56:34;23.80;84.80
20158;DHT22;10239;56.820;24.416;2023-04-24T08:59:06;23.90;85.00
20158;DHT22;10239;56.820;24.416;2023-04-24T09:01:34;23.50;84.40
20158;DHT22;10239;56.820;24.416;2023-04-24T09:04:06;23.50;83.20
20158;DHT22;10239;56.820;24.416;2023-04-24T09:06:35;23.80;84.40
20158;DHT22;10239;56.820;24.416;2023-04-24T09:09:03;23.80;83.60
20158;DHT22;10239;56.820;24.416;2023-04-24T09:11:31;23.70;83.00
20158;DHT22;10239;56.820;24.416;2023-04-24T09:13:59;23.40;83.40
20158;DHT22;10239;56.820;24.416;2023-04-24T09:16:27;23.80;84.90
20158;DHT22;10239;56.820;24.416;2023-04-24T09:18:56;23.50;80.70
20158;DHT22;10239;56.820;24.416;2023-04-24T09:21:23;23.90;81.30
20158;DHT22;10239;56.820;24.416;2023-04-24T09:24:08;23.90;83.80
20158;DHT22;10239;56.820;24.416;2023-04-24T09:26:44;22.60;83.60
20158;DHT22;10239;56.820;24.416;2023-04-24T09:29:18;23.20;86.10
20158;DHT22;10239;56.820;24.416;2023-04-24T09:31:46;23.60;83.40
20158;DHT22;10239;56.820;24.416;2023-04-24T09:34:13;23.70;84.80
20158;DHT22;10239;56.820;24.416;2023-04-24T09:36:42;22.90;83.40
20158;DHT22;10239;56.820;24.416;2023-04-24T09:39:11;23.40;81.90
20158;DHT22;10239;56.820;24.416;2023-04-24T09:41:55;22.90;84.20
20158;DHT22;10239;56.820;24.416;2023-04-24T09:44:27;22.60;84.90
20158;DHT22;10239;56.820;24.416;2023-04-24T09:46:59;22.90;86.70
20158;DHT22;10239;56.820;24.416;2023-04-24T09:49:28;23.30;83.80
20158;DHT22;10239;56.820;24.416;2023-04-24T09:52:04;23.90;85.40
20158;DHT22;10239;56.820;24.416;2023-04-24T09:54:32;23.80;82.20
20158;DHT22;10239;56.820;24.416;2023-04-24T09:57:00;24.20;80.30
20158;DHT22;10239;56.820;24.416;2023-04-24T09:59:27;25.00;79.90
20158;DHT22;10239;56.820;24.416;2023-04-24T10:01:55;25.20;79.40
20158;DHT22;10239;56.820;24.416;2023-04-24T10:04:28;25.60;79.30
20158;DHT22;10239;56.820;24.416;2023-04-24T10:06:57;26.00;78.60
20158;DHT22;10239;56.820;24.416;2023-04-24T10:09:26;27.30;79.80
20158;DHT22;10239;56.820;24.416;2023-04-24T10:11:54;28.20;74.80
20158;DHT22;10239;56.820;24.416;2023-04-24T10:14:23;27.20;75.40
20158;DHT22;10239;56.820;24.416;2023-04-24T10:16:54;28.10;75.40
20158;DHT22;10239;56.820;24.416;2023-04-24T10:19:25;28.50;72.40
20158;DHT22;10239;56.820;24.416;2023-04-24T10:21:53;27.00;72.60
20158;DHT22;10239;56.820;24.416;2023-04-24T10:24:22;26.90;74.50
20158;DHT22;10239;56.820;24.416;2023-04-24T10:26:50;25.90;75.60
20158;DHT22;10239;56.820;24.416;2023-04-24T10:29:19;25.80;74.30
20158;DHT22;10239;56.820;24.416;2023-04-24T10:31:46;25.80;74.10
20158;DHT22;10239;56.820;24.416;2023-04-24T10:34:16;26.10;79.80
20158;DHT22;10239;56.820;24.416;2023-04-24T10:36:51;27.00;74.50
20158;DHT22;10239;56.820;24.416;2023-04-24T10:39:22;27.30;75.30
20158;DHT22;10239;56.820;24.416;2023-04-24T10:41:55;27.00;71.90
20158;DHT22;10239;56.820;24.416;2023-04-24T10:44:25;25.70;73.90
20158;DHT22;10239;56.820;24.416;2023-04-24T10:47:03;26.00;74.10
20158;DHT22;10239;56.820;24.416;2023-04-24T10:49:31;25.90;75.70
20158;DHT22;10239;56.820;24.416;2023-04-24T10:52:03;25.20;75.10
20158;DHT22;10239;56.820;24.416;2023-04-24T10:54:47;24.70;77.90
20158;DHT22;10239;56.820;24.416;2023-04-24T10:59:51;24.70;77.00
20158;DHT22;10239;56.820;24.416;2023-04-24T11:02:36;25.00;77.60
20158;DHT22;10239;56.820;24.416;2023-04-24T11:05:04;25.80;78.10
20158;DHT22;10239;56.820;24.416;2023-04-24T11:08:25;26.40;75.30
20158;DHT22;10239;56.820;24.416;2023-04-24T11:10:47;25.90;75.40
20158;DHT22;10239;56.820;24.416;2023-04-24T11:13:21;25.70;74.10
20158;DHT22;10239;56.820;24.416;2023-04-24T11:16:12;25.30;74.90
20158;DHT22;10239;56.820;24.416;2023-04-24T11:18:41;24.70;75.30
20158;DHT22;10239;56.820;24.416;2023-04-24T11:21:13;24.40;76.60
20158;DHT22;10239;56.820;24.416;2023-04-24T11:23:45;24.00;78.30
20158;DHT22;10239;56.820;24.416;2023-04-24T11:26:23;24.50;80.50
20158;DHT22;10239;56.820;24.416;2023-04-24T11:29:11;24.90;79.30
20158;DHT22;10239;56.820;24.416;2023-04-24T11:31:40;24.90;75.60
20158;DHT22;10239;56.820;24.416;2023-04-24T11:34:13;24.70;77.60
20158;DHT22;10239;56.820;24.416;2023-04-24T11:36:45;24.70;77.80
20158;DHT22;10239;56.820;24.416;2023-04-24T11:39:14;24.90;76.50
20158;DHT22;10239;56.820;24.416;2023-04-24T11:41:42;25.10;79.50
20158;DHT22;10239;56.820;24.416;2023-04-24T11:44:10;25.50;79.50
20158;DHT22;10239;56.820;24.416;2023-04-24T11:46:38;25.80;82.00
20158;DHT22;10239;56.820;24.416;2023-04-24T11:49:07;25.80;76.70
20158;DHT22;10239;56.820;24.416;2023-04-24T11:51:35;26.50;83.50
20158;DHT22;10239;56.820;24.416;2023-04-24T11:54:19;27.30;78.00
20158;DHT22;10239;56.820;24.416;2023-04-24T11:56:47;27.50;77.10
20158;DHT22;10239;56.820;24.416;2023-04-24T11:59:14;27.30;78.00
20158;DHT22;10239;56.820;24.416;2023-04-24T12:01:49;27.40;79.20
20158;DHT22;10239;56.820;24.416;2023-04-24T12:04:18;27.70;78.30
20158;DHT22;10239;56.820;24.416;2023-04-24T12:07:02;27.70;78.30
20158;DHT22;10239;56.820;24.416;2023-04-24T12:09:44;28.00;83.80
20158;DHT22;10239;56.820;24.416;2023-04-24T12:12:16;28.40;78.50
20158;DHT22;10239;56.820;24.416;2023-04-24T12:14:54;28.40;77.60
20158;DHT22;10239;56.820;24.416;2023-04-24T12:17:28;28.40;79.30
20158;DHT22;10239;56.820;24.416;2023-04-24T12:20:05;28.00;76.80
20158;DHT22;10239;56.820;24.416;2023-04-24T12:22:51;27.10;76.40
20158;DHT22;10239;56.820;24.416;2023-04-24T12:25:22;26.30;78.60
20158;DHT22;10239;56.820;24.416;2023-04-24T12:28:11;26.40;80.90
20158;DHT22;10239;56.820;24.416;2023-04-24T12:30:48;26.50;80.60
20158;DHT22;10239;56.820;24.416;2023-04-24T12:33:20;26.30;77.60
20158;DHT22;10239;56.820;24.416;2023-04-24T12:35:52;25.70;78.90
20158;DHT22;10239;56.820;24.416;2023-04-24T12:38:23;25.10;80.30
20158;DHT22;10239;56.820;24.416;2023-04-24T12:43:34;24.40;82.30
20158;DHT22;10239;56.820;24.416;2023-04-24T12:46:02;24.30;83.70
20158;DHT22;10239;56.820;24.416;2023-04-24T12:48:30;24.20;84.60
20158;DHT22;10239;56.820;24.416;2023-04-24T12:50:59;24.10;84.70
20158;DHT22;10239;56.820;24.416;2023-04-24T12:53:28;24.10;85.70
20158;DHT22;10239;56.820;24.416;2023-04-24T12:55:59;24.10;84.80
20158;DHT22;10239;56.820;24.416;2023-04-24T12:58:26;24.00;86.30
20158;DHT22;10239;56.820;24.416;2023-04-24T13:00:54;23.90;84.20
20158;DHT22;10239;56.820;24.416;2023-04-24T13:03:21;23.80;84.70
20158;DHT22;10239;56.820;24.416;2023-04-24T13:05:49;23.70;84.40
20158;DHT22;10239;56.820;24.416;2023-04-24T13:08:17;23.60;86.00
20158;DHT22;10239;56.820;24.416;2023-04-24T13:10:44;23.50;86.40
20158;DHT22;10239;56.820;24.416;2023-04-24T13:13:12;23.40;86.90
20158;DHT22;10239;56.820;24.416;2023-04-24T13:15:40;23.50;85.90
20158;DHT22;10239;56.820;24.416;2023-04-24T13:18:07;23.40;86.40
20158;DHT22;10239;56.820;24.416;2023-04-24T13:20:34;23.40;86.40
20158;DHT22;10239;56.820;24.416;2023-04-24T13:23:02;23.50;86.80
20158;DHT22;10239;56.820;24.416;2023-04-24T13:25:35;23.50;87.30
20158;DHT22;10239;56.820;24.416;2023-04-24T13:28:04;23.70;87.20
20158;DHT22;10239;56.820;24.416;2023-04-24T13:30:31;23.80;85.80
20158;DHT22;10239;56.820;24.416;2023-04-24T13:32:59;24.00;85.70
20158;DHT22;10239;56.820;24.416;2023-04-24T13:35:26;24.50;86.80
20158;DHT22;10239;56.820;24.416;2023-04-24T13:37:54;24.80;84.80
20158;DHT22;10239;56.820;24.416;2023-04-24T13:40:22;25.20;82.80
20158;DHT22;10239;56.820;24.416;2023-04-24T13:42:49;25.20;83.00
20158;DHT22;10239;56.820;24.416;2023-04-24T13:45:18;25.40;83.00
20158;DHT22;10239;56.820;24.416;2023-04-24T13:47:52;25.30;86.90
20158;DHT22;10239;56.820;24.416;2023-04-24T13:50:21;25.20;84.70
20158;DHT22;10239;56.820;24.416;2023-04-24T13:52:49;24.90;83.60
20158;DHT22;10239;56.820;24.416;2023-04-24T13:55:16;24.80;86.10
20158;DHT22;10239;56.820;24.416;2023-04-24T13:57:44;24.70;86.40
20158;DHT22;10239;56.820;24.416;2023-04-24T14:00:12;24.50;86.50
20158;DHT22;10239;56.820;24.416;2023-04-24T14:02:40;24.30;85.60
20158;DHT22;10239;56.820;24.416;2023-04-24T14:05:08;24.10;86.00
20158;DHT22;10239;56.820;24.416;2023-04-24T14:07:38;23.90;86.10
20158;DHT22;10239;56.820;24.416;2023-04-24T14:10:06;23.80;86.40
20158;DHT22;10239;56.820;24.416;2023-04-24T14:12:34;23.80;86.60
20158;DHT22;10239;56.820;24.416;2023-04-24T14:15:01;23.70;87.50
20158;DHT22;10239;56.820;24.416;2023-04-24T14:17:29;23.80;86.90
20158;DHT22;10239;56.820;24.416;2023-04-24T14:19:58;23.90;85.20
20158;DHT22;10239;56.820;24.416;2023-04-24T14:22:27;23.90;84.30
20158;DHT22;10239;56.820;24.416;2023-04-24T14:24:55;23.80;85.20
20158;DHT22;10239;56.820;24.416;2023-04-24T14:27:23;23.80;85.00
20158;DHT22;10239;56.820;24.416;2023-04-24T14:29:50;23.80;85.60
20158;DHT22;10239;56.820;24.416;2023-04-24T14:32:18;23.80;86.30
20158;DHT22;10239;56.820;24.416;2023-04-24T14:34:45;23.80;84.20
20158;DHT22;10239;56.820;24.416;2023-04-24T14:37:13;23.80;85.40
20158;DHT22;10239;56.820;24.416;2023-04-24T14:39:41;23.80;86.70
20158;DHT22;10239;56.820;24.416;2023-04-24T14:42:13;23.80;86.10
20158;DHT22;10239;56.820;24.416;2023-04-24T14:44:41;23.80;91.40
20158;DHT22;10239;56.820;24.416;2023-04-24T14:47:08;23.70;91.40
20158;DHT22;10239;56.820;24.416;2023-04-24T14:49:36;23.60;89.00
20158;DHT22;10239;56.820;24.416;2023-04-24T14:52:05;23.50;90.40
20158;DHT22;10239;56.820;24.416;2023-04-24T14:54:32;23.40;91.40
20158;DHT22;10239;56.820;24.416;2023-04-24T14:57:00;23.20;90.50
20158;DHT22;10239;56.820;24.416;2023-04-24T14:59:28;23.10;89.50
20158;DHT22;10239;56.820;24.416;2023-04-24T15:01:55;23.10;90.10
20158;DHT22;10239;56.820;24.416;2023-04-24T15:04:41;23.00;90.20
20158;DHT22;10239;56.820;24.416;2023-04-24T15:07:09;22.80;91.00
20158;DHT22;10239;56.820;24.416;2023-04-24T15:09:36;22.60;91.00
20158;DHT22;10239;56.820;24.416;2023-04-24T15:12:03;22.40;91.30
20158;DHT22;10239;56.820;24.416;2023-04-24T15:14:31;22.20;91.50
20158;DHT22;10239;56.820;24.416;2023-04-24T15:16:58;22.00;91.80
20158;DHT22;10239;56.820;24.416;2023-04-24T15:19:25;21.80;92.40
20158;DHT22;10239;56.820;24.416;2023-04-24T15:21:53;21.70;92.20
20158;DHT22;10239;56.820;24.416;2023-04-24T15:24:20;21.60;92.30
20158;DHT22;10239;56.820;24.416;2023-04-24T15:26:47;21.50;92.10
20158;DHT22;10239;56.820;24.416;2023-04-24T15:29:15;21.40;95.20
20158;DHT22;10239;56.820;24.416;2023-04-24T15:31:42;21.40;96.60
20158;DHT22;10239;56.820;24.416;2023-04-24T15:34:09;21.10;95.90
20158;DHT22;10239;56.820;24.416;2023-04-24T15:36:37;21.00;96.70